sensor_id;sensor_type;location;lat;lon;timestamp;P1;durP1;ratioP1;P2;durP2;ratioP2
50379;SDS011;37474;59.468;18.040;2022-07-05T00:01:35;3.00;;;2.30;;
50379;SDS011;37474;59.468;18.040;2022-07-05T00:04:03;3.40;;;2.42;;
50379;SDS011;37474;59.468;18.040;2022-07-05T00:06:31;3.78;;;2.03;;
50379;SDS011;37474;59.468;18.040;2022-07-05T00:08:59;3.28;;;1.80;;
50379;SDS011;37474;59.468;18.040;2022-07-05T00:11:27;2.30;;;1.50;;
50379;SDS011;37474;59.468;18.040;2022-07-05T00:13:56;2.75;;;1.60;;
50379;SDS011;37474;59.468;18.040;2022-07-05T00:16:24;1.73;;;1.60;;
50379;SDS011;37474;59.468;18.040;2022-07-05T00:18:52;2.50;;;1.65;;
50379;SDS011;37474;59.468;18.040;2022-07-05T00:21:20;3.45;;;1.67;;
50379;SDS011;37474;59.468;18.040;2022-07-05T00:23:48;2.63;;;1.63;;
50379;SDS011;37474;59.468;18.040;2022-07-05T00:26:16;1.60;;;1.35;;
50379;SDS011;37474;59.468;18.040;2022-07-05T00:28:44;1.92;;;1.42;;
50379;SDS011;37474;59.468;18.040;2022-07-05T00:31:13;3.40;;;1.37;;
50379;SDS011;37474;59.468;18.040;2022-07-05T00:33:41;1.95;;;1.38;;
50379;SDS011;37474;59.468;18.040;2022-07-05T00:36:09;2.03;;;1.50;;
50379;SDS011;37474;59.468;18.040;2022-07-05T00:38:37;2.38;;;1.50;;
50379;SDS011;37474;59.468;18.040;2022-07-05T00:41:05;1.80;;;1.50;;
50379;SDS011;37474;59.468;18.040;2022-07-05T00:43:33;2.85;;;1.88;;
50379;SDS011;37474;59.468;18.040;2022-07-05T00:46:01;2.50;;;1.70;;
50379;SDS011;37474;59.468;18.040;2022-07-05T00:48:30;3.30;;;1.73;;
50379;SDS011;37474;59.468;18.040;2022-07-05T00:50:58;4.30;;;2.15;;
50379;SDS011;37474;59.468;18.040;2022-07-05T00:53:26;2.42;;;1.90;;
50379;SDS011;37474;59.468;18.040;2022-07-05T00:55:55;2.22;;;2.03;;
50379;SDS011;37474;59.468;18.040;2022-07-05T00:58:24;2.40;;;2.20;;
50379;SDS011;37474;59.468;18.040;2022-07-05T01:00:52;2.40;;;2.20;;
50379;SDS011;37474;59.468;18.040;2022-07-05T01:03:20;3.60;;;2.30;;
50379;SDS011;37474;59.468;18.040;2022-07-05T01:05:49;4.00;;;2.40;;
50379;SDS011;37474;59.468;18.040;2022-07-05T01:08:17;3.90;;;2.80;;
50379;SDS011;37474;59.468;18.040;2022-07-05T01:10:45;4.30;;;2.53;;
50379;SDS011;37474;59.468;18.040;2022-07-05T01:13:13;3.28;;;2.38;;
50379;SDS011;37474;59.468;18.040;2022-07-05T01:15:41;2.90;;;2.20;;
50379;SDS011;37474;59.468;18.040;2022-07-05T01:18:10;3.03;;;2.22;;
50379;SDS011;37474;59.468;18.040;2022-07-05T01:20:38;2.92;;;2.50;;
50379;SDS011;37474;59.468;18.040;2022-07-05T01:23:09;3.42;;;2.90;;
50379;SDS011;37474;59.468;18.040;2022-07-05T01:25:37;5.95;;;2.67;;
50379;SDS011;37474;59.468;18.040;2022-07-05T01:28:05;5.68;;;3.20;;
50379;SDS011;37474;59.468;18.040;2022-07-05T01:30:34;3.20;;;2.97;;
50379;SDS011;37474;59.468;18.040;2022-07-05T01:33:04;4.25;;;3.20;;
50379;SDS011;37474;59.468;18.040;2022-07-05T01:35:33;3.47;;;2.72;;
50379;SDS011;37474;59.468;18.040;2022-07-05T01:38:02;3.10;;;2.70;;
50379;SDS011;37474;59.468;18.040;2022-07-05T01:40:32;3.15;;;2.80;;
50379;SDS011;37474;59.468;18.040;2022-07-05T01:43:00;3.80;;;2.80;;
50379;SDS011;37474;59.468;18.040;2022-07-05T01:45:29;3.10;;;2.60;;
50379;SDS011;37474;59.468;18.040;2022-07-05T01:48:09;3.80;;;2.80;;
50379;SDS011;37474;59.468;18.040;2022-07-05T01:50:41;3.75;;;2.55;;
50379;SDS011;37474;59.468;18.040;2022-07-05T01:53:14;2.60;;;2.40;;
50379;SDS011;37474;59.468;18.040;2022-07-05T01:55:46;3.15;;;2.67;;
50379;SDS011;37474;59.468;18.040;2022-07-05T01:58:14;3.22;;;2.60;;
50379;SDS011;37474;59.468;18.040;2022-07-05T02:00:43;4.03;;;2.60;;
50379;SDS011;37474;59.468;18.040;2022-07-05T02:03:12;4.68;;;2.70;;
50379;SDS011;37474;59.468;18.040;2022-07-05T02:05:41;3.97;;;2.47;;
50379;SDS011;37474;59.468;18.040;2022-07-05T02:08:09;3.88;;;2.45;;
50379;SDS011;37474;59.468;18.040;2022-07-05T02:10:38;3.05;;;2.70;;
50379;SDS011;37474;59.468;18.040;2022-07-05T02:13:09;3.72;;;2.72;;
50379;SDS011;37474;59.468;18.040;2022-07-05T02:15:38;3.28;;;2.72;;
50379;SDS011;37474;59.468;18.040;2022-07-05T02:18:08;4.35;;;2.70;;
50379;SDS011;37474;59.468;18.040;2022-07-05T02:20:37;3.60;;;2.50;;
50379;SDS011;37474;59.468;18.040;2022-07-05T02:23:06;6.00;;;2.65;;
50379;SDS011;37474;59.468;18.040;2022-07-05T02:25:34;3.60;;;2.47;;
50379;SDS011;37474;59.468;18.040;2022-07-05T02:28:02;5.17;;;2.77;;
50379;SDS011;37474;59.468;18.040;2022-07-05T02:30:33;3.03;;;2.10;;
50379;SDS011;37474;59.468;18.040;2022-07-05T02:33:00;2.80;;;2.30;;
50379;SDS011;37474;59.468;18.040;2022-07-05T02:35:29;3.13;;;2.50;;
50379;SDS011;37474;59.468;18.040;2022-07-05T02:37:56;3.55;;;2.15;;
50379;SDS011;37474;59.468;18.040;2022-07-05T02:40:24;3.75;;;1.90;;
50379;SDS011;37474;59.468;18.040;2022-07-05T02:42:52;2.70;;;1.67;;
50379;SDS011;37474;59.468;18.040;2022-07-05T02:45:20;2.65;;;1.63;;
50379;SDS011;37474;59.468;18.040;2022-07-05T02:47:49;3.55;;;1.83;;
50379;SDS011;37474;59.468;18.040;2022-07-05T02:50:17;3.92;;;1.80;;
50379;SDS011;37474;59.468;18.040;2022-07-05T02:52:45;4.38;;;1.65;;
50379;SDS011;37474;59.468;18.040;2022-07-05T02:55:13;1.90;;;1.70;;
50379;SDS011;37474;59.468;18.040;2022-07-05T02:57:41;2.75;;;1.90;;
50379;SDS011;37474;59.468;18.040;2022-07-05T03:00:09;3.33;;;1.60;;
50379;SDS011;37474;59.468;18.040;2022-07-05T03:02:38;2.63;;;1.70;;
50379;SDS011;37474;59.468;18.040;2022-07-05T03:05:07;3.90;;;1.40;;
50379;SDS011;37474;59.468;18.040;2022-07-05T03:07:36;2.13;;;1.63;;
50379;SDS011;37474;59.468;18.040;2022-07-05T03:10:04;4.10;;;1.40;;
50379;SDS011;37474;59.468;18.040;2022-07-05T03:12:32;2.08;;;1.02;;
50379;SDS011;37474;59.468;18.040;2022-07-05T03:15:00;2.13;;;1.00;;
50379;SDS011;37474;59.468;18.040;2022-07-05T03:17:36;1.95;;;1.10;;
50379;SDS011;37474;59.468;18.040;2022-07-05T03:20:04;3.92;;;0.88;;
50379;SDS011;37474;59.468;18.040;2022-07-05T03:22:34;2.72;;;1.10;;
50379;SDS011;37474;59.468;18.040;2022-07-05T03:25:02;1.73;;;1.00;;
50379;SDS011;37474;59.468;18.040;2022-07-05T03:27:31;2.00;;;1.10;;
50379;SDS011;37474;59.468;18.040;2022-07-05T03:29:59;2.53;;;1.00;;
50379;SDS011;37474;59.468;18.040;2022-07-05T03:32:27;3.20;;;1.10;;
50379;SDS011;37474;59.468;18.040;2022-07-05T03:34:55;2.95;;;1.10;;
50379;SDS011;37474;59.468;18.040;2022-07-05T03:37:23;2.92;;;0.95;;
50379;SDS011;37474;59.468;18.040;2022-07-05T03:39:52;1.80;;;1.00;;
50379;SDS011;37474;59.468;18.040;2022-07-05T03:42:20;1.75;;;1.00;;
50379;SDS011;37474;59.468;18.040;2022-07-05T03:44:48;1.60;;;1.00;;
50379;SDS011;37474;59.468;18.040;2022-07-05T03:47:16;3.30;;;1.10;;
50379;SDS011;37474;59.468;18.040;2022-07-05T03:49:44;1.38;;;0.82;;
50379;SDS011;37474;59.468;18.040;2022-07-05T03:52:13;2.83;;;1.00;;
50379;SDS011;37474;59.468;18.040;2022-07-05T03:54:41;2.22;;;0.93;;
50379;SDS011;37474;59.468;18.040;2022-07-05T03:57:12;1.90;;;0.90;;
50379;SDS011;37474;59.468;18.040;2022-07-05T03:59:40;2.15;;;1.00;;
50379;SDS011;37474;59.468;18.040;2022-07-05T04:02:09;3.10;;;1.10;;
50379;SDS011;37474;59.468;18.040;2022-07-05T04:04:37;2.63;;;1.15;;
50379;SDS011;37474;59.468;18.040;2022-07-05T04:07:05;1.83;;;0.80;;
50379;SDS011;37474;59.468;18.040;2022-07-05T04:09:33;2.42;;;0.82;;
50379;SDS011;37474;59.468;18.040;2022-07-05T04:12:01;3.05;;;0.95;;
50379;SDS011;37474;59.468;18.040;2022-07-05T04:14:30;2.13;;;1.00;;
50379;SDS011;37474;59.468;18.040;2022-07-05T04:16:58;2.40;;;1.00;;
50379;SDS011;37474;59.468;18.040;2022-07-05T04:19:27;1.92;;;0.90;;
50379;SDS011;37474;59.468;18.040;2022-07-05T04:21:55;2.13;;;0.98;;
50379;SDS011;37474;59.468;18.040;2022-07-05T04:24:23;2.92;;;0.90;;
50379;SDS011;37474;59.468;18.040;2022-07-05T04:26:51;2.95;;;1.10;;
50379;SDS011;37474;59.468;18.040;2022-07-05T04:29:19;1.95;;;0.90;;
50379;SDS011;37474;59.468;18.040;2022-07-05T04:31:48;1.77;;;0.90;;
50379;SDS011;37474;59.468;18.040;2022-07-05T04:34:16;3.47;;;0.95;;
50379;SDS011;37474;59.468;18.040;2022-07-05T04:36:44;3.67;;;1.02;;
50379;SDS011;37474;59.468;18.040;2022-07-05T04:39:12;3.67;;;1.00;;
50379;SDS011;37474;59.468;18.040;2022-07-05T04:41:40;3.63;;;1.00;;
50379;SDS011;37474;59.468;18.040;2022-07-05T04:44:08;3.03;;;0.90;;
50379;SDS011;37474;59.468;18.040;2022-07-05T04:46:36;2.83;;;1.00;;
50379;SDS011;37474;59.468;18.040;2022-07-05T04:49:05;1.90;;;0.80;;
50379;SDS011;37474;59.468;18.040;2022-07-05T04:51:33;2.75;;;0.90;;
50379;SDS011;37474;59.468;18.040;2022-07-05T04:54:01;2.85;;;0.90;;
50379;SDS011;37474;59.468;18.040;2022-07-05T04:56:29;2.90;;;0.93;;
50379;SDS011;37474;59.468;18.040;2022-07-05T04:58:56;2.55;;;0.88;;
50379;SDS011;37474;59.468;18.040;2022-07-05T05:01:24;2.58;;;0.85;;
50379;SDS011;37474;59.468;18.040;2022-07-05T05:03:52;2.97;;;0.90;;
50379;SDS011;37474;59.468;18.040;2022-07-05T05:06:22;4.63;;;1.10;;
50379;SDS011;37474;59.468;18.040;2022-07-05T05:08:49;2.50;;;0.90;;
50379;SDS011;37474;59.468;18.040;2022-07-05T05:11:17;4.95;;;1.00;;
50379;SDS011;37474;59.468;18.040;2022-07-05T05:13:46;3.45;;;0.80;;
50379;SDS011;37474;59.468;18.040;2022-07-05T05:16:14;3.70;;;0.88;;
50379;SDS011;37474;59.468;18.040;2022-07-05T05:18:42;3.23;;;0.87;;
50379;SDS011;37474;59.468;18.040;2022-07-05T05:21:10;4.82;;;0.90;;
50379;SDS011;37474;59.468;18.040;2022-07-05T05:23:39;2.05;;;0.80;;
50379;SDS011;37474;59.468;18.040;2022-07-05T05:26:07;4.32;;;0.98;;
50379;SDS011;37474;59.468;18.040;2022-07-05T05:28:35;3.50;;;0.95;;
50379;SDS011;37474;59.468;18.040;2022-07-05T05:31:03;3.00;;;1.00;;
50379;SDS011;37474;59.468;18.040;2022-07-05T05:33:31;4.25;;;0.80;;
50379;SDS011;37474;59.468;18.040;2022-07-05T05:35:59;2.90;;;0.80;;
50379;SDS011;37474;59.468;18.040;2022-07-05T05:38:28;4.07;;;0.90;;
50379;SDS011;37474;59.468;18.040;2022-07-05T05:40:57;3.20;;;0.98;;
50379;SDS011;37474;59.468;18.040;2022-07-05T05:43:25;5.53;;;1.00;;
50379;SDS011;37474;59.468;18.040;2022-07-05T05:45:53;3.65;;;0.80;;
50379;SDS011;37474;59.468;18.040;2022-07-05T05:48:21;3.83;;;1.02;;
50379;SDS011;37474;59.468;18.040;2022-07-05T05:50:49;3.13;;;0.90;;
50379;SDS011;37474;59.468;18.040;2022-07-05T05:53:17;3.40;;;0.98;;
50379;SDS011;37474;59.468;18.040;2022-07-05T05:55:45;4.50;;;0.90;;
50379;SDS011;37474;59.468;18.040;2022-07-05T05:58:15;4.63;;;1.00;;
50379;SDS011;37474;59.468;18.040;2022-07-05T06:00:47;3.97;;;0.90;;
50379;SDS011;37474;59.468;18.040;2022-07-05T06:03:17;3.43;;;0.80;;
50379;SDS011;37474;59.468;18.040;2022-07-05T06:05:45;3.72;;;0.90;;
50379;SDS011;37474;59.468;18.040;2022-07-05T06:08:13;3.77;;;0.90;;
50379;SDS011;37474;59.468;18.040;2022-07-05T06:10:42;5.15;;;0.85;;
50379;SDS011;37474;59.468;18.040;2022-07-05T06:13:10;3.60;;;0.80;;
50379;SDS011;37474;59.468;18.040;2022-07-05T06:15:41;3.35;;;0.90;;
50379;SDS011;37474;59.468;18.040;2022-07-05T06:18:10;4.40;;;0.90;;
50379;SDS011;37474;59.468;18.040;2022-07-05T06:20:38;4.40;;;0.88;;
50379;SDS011;37474;59.468;18.040;2022-07-05T06:23:07;3.63;;;0.80;;
50379;SDS011;37474;59.468;18.040;2022-07-05T06:25:35;4.00;;;0.90;;
50379;SDS011;37474;59.468;18.040;2022-07-05T06:28:04;3.50;;;0.85;;
50379;SDS011;37474;59.468;18.040;2022-07-05T06:30:33;2.78;;;0.80;;
50379;SDS011;37474;59.468;18.040;2022-07-05T06:33:03;3.80;;;1.05;;
50379;SDS011;37474;59.468;18.040;2022-07-05T06:35:32;4.88;;;0.90;;
50379;SDS011;37474;59.468;18.040;2022-07-05T06:38:01;4.05;;;0.73;;
50379;SDS011;37474;59.468;18.040;2022-07-05T06:40:30;3.70;;;0.82;;
50379;SDS011;37474;59.468;18.040;2022-07-05T06:42:59;3.38;;;0.80;;
50379;SDS011;37474;59.468;18.040;2022-07-05T06:45:28;3.50;;;0.73;;
50379;SDS011;37474;59.468;18.040;2022-07-05T06:47:56;3.08;;;0.77;;
50379;SDS011;37474;59.468;18.040;2022-07-05T06:50:27;2.40;;;0.60;;
50379;SDS011;37474;59.468;18.040;2022-07-05T06:52:56;3.35;;;0.65;;
50379;SDS011;37474;59.468;18.040;2022-07-05T06:55:24;2.55;;;0.70;;
50379;SDS011;37474;59.468;18.040;2022-07-05T06:57:56;3.78;;;0.90;;
50379;SDS011;37474;59.468;18.040;2022-07-05T07:00:42;4.60;;;0.90;;
50379;SDS011;37474;59.468;18.040;2022-07-05T07:03:30;3.28;;;0.70;;
50379;SDS011;37474;59.468;18.040;2022-07-05T07:06:20;3.13;;;0.90;;
50379;SDS011;37474;59.468;18.040;2022-07-05T07:08:49;2.65;;;0.70;;
50379;SDS011;37474;59.468;18.040;2022-07-05T07:11:33;2.65;;;0.60;;
50379;SDS011;37474;59.468;18.040;2022-07-05T07:14:01;3.42;;;1.00;;
50379;SDS011;37474;59.468;18.040;2022-07-05T07:16:29;2.97;;;1.00;;
50379;SDS011;37474;59.468;18.040;2022-07-05T07:18:58;3.70;;;0.90;;
50379;SDS011;37474;59.468;18.040;2022-07-05T07:21:42;3.55;;;0.80;;
50379;SDS011;37474;59.468;18.040;2022-07-05T07:24:10;3.55;;;0.70;;
50379;SDS011;37474;59.468;18.040;2022-07-05T07:26:39;4.50;;;0.70;;
50379;SDS011;37474;59.468;18.040;2022-07-05T07:29:25;4.50;;;0.80;;
50379;SDS011;37474;59.468;18.040;2022-07-05T07:31:54;3.85;;;0.88;;
50379;SDS011;37474;59.468;18.040;2022-07-05T07:34:22;3.83;;;0.80;;
50379;SDS011;37474;59.468;18.040;2022-07-05T07:36:52;2.63;;;0.60;;
50379;SDS011;37474;59.468;18.040;2022-07-05T07:39:20;3.05;;;0.70;;
50379;SDS011;37474;59.468;18.040;2022-07-05T07:41:47;3.72;;;0.80;;
50379;SDS011;37474;59.468;18.040;2022-07-05T07:44:16;3.45;;;0.70;;
50379;SDS011;37474;59.468;18.040;2022-07-05T07:46:44;3.80;;;0.88;;
50379;SDS011;37474;59.468;18.040;2022-07-05T07:49:13;2.87;;;0.67;;
50379;SDS011;37474;59.468;18.040;2022-07-05T07:51:41;2.95;;;0.80;;
50379;SDS011;37474;59.468;18.040;2022-07-05T07:54:10;2.70;;;0.63;;
50379;SDS011;37474;59.468;18.040;2022-07-05T07:56:38;2.95;;;0.70;;
50379;SDS011;37474;59.468;18.040;2022-07-05T07:59:06;2.90;;;0.83;;
50379;SDS011;37474;59.468;18.040;2022-07-05T08:01:34;3.45;;;0.90;;
50379;SDS011;37474;59.468;18.040;2022-07-05T08:04:10;3.42;;;0.70;;
50379;SDS011;37474;59.468;18.040;2022-07-05T08:06:39;4.75;;;0.80;;
50379;SDS011;37474;59.468;18.040;2022-07-05T08:09:07;5.70;;;0.90;;
50379;SDS011;37474;59.468;18.040;2022-07-05T08:11:43;3.10;;;0.73;;
50379;SDS011;37474;59.468;18.040;2022-07-05T08:14:12;3.25;;;0.75;;
50379;SDS011;37474;59.468;18.040;2022-07-05T08:16:39;3.53;;;0.85;;
50379;SDS011;37474;59.468;18.040;2022-07-05T08:19:13;3.58;;;0.80;;
50379;SDS011;37474;59.468;18.040;2022-07-05T08:21:59;6.32;;;0.90;;
50379;SDS011;37474;59.468;18.040;2022-07-05T08:24:27;2.83;;;0.80;;
50379;SDS011;37474;59.468;18.040;2022-07-05T08:26:57;5.32;;;0.80;;
50379;SDS011;37474;59.468;18.040;2022-07-05T08:29:25;5.43;;;0.80;;
50379;SDS011;37474;59.468;18.040;2022-07-05T08:31:53;3.58;;;0.70;;
50379;SDS011;37474;59.468;18.040;2022-07-05T08:34:20;4.65;;;0.85;;
50379;SDS011;37474;59.468;18.040;2022-07-05T08:36:48;3.30;;;0.70;;
50379;SDS011;37474;59.468;18.040;2022-07-05T08:39:16;3.03;;;0.90;;
50379;SDS011;37474;59.468;18.040;2022-07-05T08:41:47;4.28;;;0.75;;
50379;SDS011;37474;59.468;18.040;2022-07-05T08:44:19;5.40;;;1.20;;
50379;SDS011;37474;59.468;18.040;2022-07-05T08:46:48;2.85;;;0.68;;
50379;SDS011;37474;59.468;18.040;2022-07-05T08:49:22;2.63;;;0.70;;
50379;SDS011;37474;59.468;18.040;2022-07-05T08:51:51;2.90;;;0.63;;
50379;SDS011;37474;59.468;18.040;2022-07-05T08:54:21;3.88;;;0.75;;
50379;SDS011;37474;59.468;18.040;2022-07-05T08:56:50;2.58;;;0.70;;
50379;SDS011;37474;59.468;18.040;2022-07-05T08:59:39;2.20;;;0.57;;
50379;SDS011;37474;59.468;18.040;2022-07-05T09:02:08;3.33;;;0.90;;
50379;SDS011;37474;59.468;18.040;2022-07-05T09:04:42;2.47;;;0.63;;
50379;SDS011;37474;59.468;18.040;2022-07-05T09:07:15;2.37;;;0.70;;
50379;SDS011;37474;59.468;18.040;2022-07-05T09:09:46;3.10;;;0.63;;
50379;SDS011;37474;59.468;18.040;2022-07-05T09:12:17;3.63;;;0.70;;
50379;SDS011;37474;59.468;18.040;2022-07-05T09:14:49;3.17;;;0.77;;
50379;SDS011;37474;59.468;18.040;2022-07-05T09:17:17;3.83;;;0.70;;
50379;SDS011;37474;59.468;18.040;2022-07-05T09:19:50;3.30;;;0.80;;
50379;SDS011;37474;59.468;18.040;2022-07-05T09:22:46;3.20;;;0.70;;
50379;SDS011;37474;59.468;18.040;2022-07-05T09:25:17;2.47;;;0.65;;
50379;SDS011;37474;59.468;18.040;2022-07-05T09:27:50;4.60;;;0.52;;
50379;SDS011;37474;59.468;18.040;2022-07-05T09:30:31;2.53;;;0.63;;
50379;SDS011;37474;59.468;18.040;2022-07-05T09:33:00;5.53;;;0.80;;
50379;SDS011;37474;59.468;18.040;2022-07-05T09:35:29;3.35;;;0.70;;
50379;SDS011;37474;59.468;18.040;2022-07-05T09:37:57;2.13;;;0.82;;
50379;SDS011;37474;59.468;18.040;2022-07-05T09:40:25;2.22;;;0.60;;
50379;SDS011;37474;59.468;18.040;2022-07-05T09:42:53;2.20;;;0.60;;
50379;SDS011;37474;59.468;18.040;2022-07-05T09:45:39;3.30;;;0.80;;
50379;SDS011;37474;59.468;18.040;2022-07-05T09:48:07;4.53;;;0.85;;
50379;SDS011;37474;59.468;18.040;2022-07-05T09:51:04;3.13;;;0.63;;
50379;SDS011;37474;59.468;18.040;2022-07-05T09:53:54;2.30;;;0.60;;
50379;SDS011;37474;59.468;18.040;2022-07-05T09:56:27;3.30;;;0.80;;
50379;SDS011;37474;59.468;18.040;2022-07-05T09:59:11;3.95;;;0.55;;
50379;SDS011;37474;59.468;18.040;2022-07-05T10:01:41;3.63;;;0.80;;
50379;SDS011;37474;59.468;18.040;2022-07-05T10:04:09;3.03;;;0.70;;
50379;SDS011;37474;59.468;18.040;2022-07-05T10:06:37;3.17;;;0.60;;
50379;SDS011;37474;59.468;18.040;2022-07-05T10:09:06;2.55;;;0.52;;
50379;SDS011;37474;59.468;18.040;2022-07-05T10:11:37;3.58;;;0.75;;
50379;SDS011;37474;59.468;18.040;2022-07-05T10:14:09;2.85;;;0.70;;
50379;SDS011;37474;59.468;18.040;2022-07-05T10:16:39;4.30;;;0.60;;
50379;SDS011;37474;59.468;18.040;2022-07-05T10:19:10;1.98;;;0.50;;
50379;SDS011;37474;59.468;18.040;2022-07-05T10:21:43;2.40;;;0.60;;
50379;SDS011;37474;59.468;18.040;2022-07-05T10:24:33;3.05;;;0.60;;
50379;SDS011;37474;59.468;18.040;2022-07-05T10:27:05;2.15;;;0.63;;
50379;SDS011;37474;59.468;18.040;2022-07-05T10:29:34;3.15;;;0.60;;
50379;SDS011;37474;59.468;18.040;2022-07-05T10:32:04;3.20;;;0.90;;
50379;SDS011;37474;59.468;18.040;2022-07-05T10:34:37;3.28;;;0.70;;
50379;SDS011;37474;59.468;18.040;2022-07-05T10:37:24;3.75;;;0.77;;
50379;SDS011;37474;59.468;18.040;2022-07-05T10:39:55;2.50;;;0.70;;
50379;SDS011;37474;59.468;18.040;2022-07-05T10:42:24;3.45;;;0.60;;
50379;SDS011;37474;59.468;18.040;2022-07-05T10:44:55;4.40;;;0.80;;
50379;SDS011;37474;59.468;18.040;2022-07-05T10:47:23;2.90;;;0.60;;
50379;SDS011;37474;59.468;18.040;2022-07-05T10:50:05;4.45;;;0.70;;
50379;SDS011;37474;59.468;18.040;2022-07-05T10:52:34;3.28;;;0.60;;
50379;SDS011;37474;59.468;18.040;2022-07-05T10:55:17;3.15;;;0.65;;
50379;SDS011;37474;59.468;18.040;2022-07-05T11:07:03;3.75;;;0.80;;
50379;SDS011;37474;59.468;18.040;2022-07-05T11:09:31;4.00;;;0.70;;
50379;SDS011;37474;59.468;18.040;2022-07-05T11:12:03;2.50;;;0.50;;
50379;SDS011;37474;59.468;18.040;2022-07-05T11:14:54;3.55;;;0.80;;
50379;SDS011;37474;59.468;18.040;2022-07-05T11:17:32;2.95;;;0.52;;
50379;SDS011;37474;59.468;18.040;2022-07-05T11:20:26;2.90;;;0.70;;
50379;SDS011;37474;59.468;18.040;2022-07-05T11:23:10;2.30;;;0.75;;
50379;SDS011;37474;59.468;18.040;2022-07-05T11:25:40;3.28;;;0.70;;
50379;SDS011;37474;59.468;18.040;2022-07-05T11:28:12;3.00;;;0.60;;
50379;SDS011;37474;59.468;18.040;2022-07-05T11:30:44;2.13;;;0.70;;
50379;SDS011;37474;59.468;18.040;2022-07-05T11:33:32;3.60;;;0.90;;
50379;SDS011;37474;59.468;18.040;2022-07-05T11:36:02;5.95;;;0.80;;
50379;SDS011;37474;59.468;18.040;2022-07-05T11:38:33;4.00;;;0.80;;
50379;SDS011;37474;59.468;18.040;2022-07-05T11:41:21;3.73;;;0.70;;
50379;SDS011;37474;59.468;18.040;2022-07-05T11:43:55;3.47;;;0.88;;
50379;SDS011;37474;59.468;18.040;2022-07-05T11:46:24;1.92;;;0.60;;
50379;SDS011;37474;59.468;18.040;2022-07-05T11:49:13;2.60;;;0.60;;
50379;SDS011;37474;59.468;18.040;2022-07-05T11:51:52;2.97;;;0.50;;
50379;SDS011;37474;59.468;18.040;2022-07-05T11:54:23;1.85;;;0.50;;
50379;SDS011;37474;59.468;18.040;2022-07-05T11:56:52;2.70;;;0.65;;
50379;SDS011;37474;59.468;18.040;2022-07-05T11:59:20;4.65;;;0.90;;
50379;SDS011;37474;59.468;18.040;2022-07-05T12:01:49;3.67;;;0.70;;
50379;SDS011;37474;59.468;18.040;2022-07-05T12:04:21;2.58;;;0.77;;
50379;SDS011;37474;59.468;18.040;2022-07-05T12:06:50;2.95;;;0.90;;
50379;SDS011;37474;59.468;18.040;2022-07-05T12:09:22;3.10;;;0.70;;
50379;SDS011;37474;59.468;18.040;2022-07-05T12:11:53;3.50;;;0.60;;
50379;SDS011;37474;59.468;18.040;2022-07-05T12:14:46;6.20;;;1.02;;
50379;SDS011;37474;59.468;18.040;2022-07-05T12:17:16;3.25;;;0.90;;
50379;SDS011;37474;59.468;18.040;2022-07-05T12:19:51;4.15;;;0.80;;
50379;SDS011;37474;59.468;18.040;2022-07-05T12:22:27;5.13;;;0.98;;
50379;SDS011;37474;59.468;18.040;2022-07-05T12:24:57;4.05;;;1.00;;
50379;SDS011;37474;59.468;18.040;2022-07-05T12:27:25;5.10;;;1.20;;
50379;SDS011;37474;59.468;18.040;2022-07-05T12:29:54;4.10;;;1.00;;
50379;SDS011;37474;59.468;18.040;2022-07-05T12:32:22;3.17;;;1.00;;
50379;SDS011;37474;59.468;18.040;2022-07-05T12:34:50;3.25;;;1.10;;
50379;SDS011;37474;59.468;18.040;2022-07-05T12:37:21;4.00;;;0.98;;
50379;SDS011;37474;59.468;18.040;2022-07-05T12:39:50;2.30;;;0.70;;
50379;SDS011;37474;59.468;18.040;2022-07-05T12:42:31;1.93;;;0.60;;
50379;SDS011;37474;59.468;18.040;2022-07-05T12:45:09;3.50;;;0.90;;
50379;SDS011;37474;59.468;18.040;2022-07-05T12:47:48;1.90;;;0.60;;
50379;SDS011;37474;59.468;18.040;2022-07-05T12:50:17;2.85;;;0.60;;
50379;SDS011;37474;59.468;18.040;2022-07-05T12:53:01;2.60;;;0.60;;
50379;SDS011;37474;59.468;18.040;2022-07-05T12:55:49;2.42;;;0.50;;
50379;SDS011;37474;59.468;18.040;2022-07-05T12:58:32;2.22;;;0.60;;
50379;SDS011;37474;59.468;18.040;2022-07-05T13:01:00;2.63;;;0.68;;
50379;SDS011;37474;59.468;18.040;2022-07-05T13:03:28;1.50;;;0.47;;
50379;SDS011;37474;59.468;18.040;2022-07-05T13:05:59;1.80;;;0.50;;
50379;SDS011;37474;59.468;18.040;2022-07-05T13:08:29;1.83;;;0.60;;
50379;SDS011;37474;59.468;18.040;2022-07-05T13:10:58;1.88;;;0.45;;
50379;SDS011;37474;59.468;18.040;2022-07-05T13:13:26;2.13;;;0.55;;
50379;SDS011;37474;59.468;18.040;2022-07-05T13:15:55;2.83;;;0.57;;
50379;SDS011;37474;59.468;18.040;2022-07-05T13:18:24;2.67;;;0.40;;
50379;SDS011;37474;59.468;18.040;2022-07-05T13:20:53;2.00;;;0.50;;
50379;SDS011;37474;59.468;18.040;2022-07-05T13:23:20;1.83;;;0.60;;
50379;SDS011;37474;59.468;18.040;2022-07-05T13:25:48;2.17;;;0.60;;
50379;SDS011;37474;59.468;18.040;2022-07-05T13:28:18;3.22;;;0.40;;
50379;SDS011;37474;59.468;18.040;2022-07-05T13:30:45;2.45;;;0.50;;
50379;SDS011;37474;59.468;18.040;2022-07-05T13:33:13;1.55;;;0.68;;
50379;SDS011;37474;59.468;18.040;2022-07-05T13:35:41;1.88;;;0.50;;
50379;SDS011;37474;59.468;18.040;2022-07-05T13:38:09;3.53;;;0.75;;
50379;SDS011;37474;59.468;18.040;2022-07-05T13:40:37;2.22;;;0.63;;
50379;SDS011;37474;59.468;18.040;2022-07-05T13:43:06;2.53;;;0.60;;
50379;SDS011;37474;59.468;18.040;2022-07-05T13:45:35;3.63;;;0.73;;
50379;SDS011;37474;59.468;18.040;2022-07-05T13:48:03;2.70;;;0.60;;
50379;SDS011;37474;59.468;18.040;2022-07-05T13:50:32;4.83;;;0.60;;
50379;SDS011;37474;59.468;18.040;2022-07-05T13:53:00;4.18;;;0.70;;
50379;SDS011;37474;59.468;18.040;2022-07-05T13:55:29;7.28;;;1.10;;
50379;SDS011;37474;59.468;18.040;2022-07-05T13:57:57;2.30;;;0.52;;
50379;SDS011;37474;59.468;18.040;2022-07-05T14:00:25;2.78;;;0.50;;
50379;SDS011;37474;59.468;18.040;2022-07-05T14:02:55;11.13;;;1.57;;
50379;SDS011;37474;59.468;18.040;2022-07-05T14:05:31;4.25;;;0.77;;
50379;SDS011;37474;59.468;18.040;2022-07-05T14:07:59;2.58;;;0.55;;
50379;SDS011;37474;59.468;18.040;2022-07-05T14:10:27;2.30;;;0.50;;
50379;SDS011;37474;59.468;18.040;2022-07-05T14:12:54;2.45;;;0.60;;
50379;SDS011;37474;59.468;18.040;2022-07-05T14:15:22;2.97;;;0.60;;
50379;SDS011;37474;59.468;18.040;2022-07-05T14:17:50;3.00;;;0.60;;
50379;SDS011;37474;59.468;18.040;2022-07-05T14:20:20;3.00;;;0.60;;
50379;SDS011;37474;59.468;18.040;2022-07-05T14:22:48;2.72;;;0.63;;
50379;SDS011;37474;59.468;18.040;2022-07-05T14:25:16;2.33;;;0.50;;
50379;SDS011;37474;59.468;18.040;2022-07-05T14:27:44;2.60;;;0.60;;
50379;SDS011;37474;59.468;18.040;2022-07-05T14:30:12;2.30;;;0.70;;
50379;SDS011;37474;59.468;18.040;2022-07-05T14:32:40;1.80;;;0.57;;
50379;SDS011;37474;59.468;18.040;2022-07-05T14:35:14;2.03;;;0.90;;
50379;SDS011;37474;59.468;18.040;2022-07-05T14:37:44;2.38;;;0.77;;
50379;SDS011;37474;59.468;18.040;2022-07-05T14:40:12;2.97;;;0.63;;
50379;SDS011;37474;59.468;18.040;2022-07-05T14:42:40;2.35;;;0.60;;
50379;SDS011;37474;59.468;18.040;2022-07-05T14:45:08;2.88;;;0.63;;
50379;SDS011;37474;59.468;18.040;2022-07-05T14:47:36;3.20;;;0.70;;
50379;SDS011;37474;59.468;18.040;2022-07-05T14:50:04;1.80;;;0.50;;
50379;SDS011;37474;59.468;18.040;2022-07-05T14:52:32;2.05;;;0.60;;
50379;SDS011;37474;59.468;18.040;2022-07-05T14:55:02;1.95;;;0.40;;
50379;SDS011;37474;59.468;18.040;2022-07-05T14:57:30;1.45;;;0.50;;
50379;SDS011;37474;59.468;18.040;2022-07-05T14:59:58;1.13;;;0.40;;
50379;SDS011;37474;59.468;18.040;2022-07-05T15:02:26;1.60;;;0.40;;